Time;durP1;ratioP1;P1;durP2;ratioP2;P2;SDS_P1;SDS_P2;PMS_P1;PMS_P2;Temp;Humidity;BMP_temperature;BMP_pressure;BME280_temperature;BME280_humidity;BME280_pressure;Samples;Min_cycle;Max_cycle;Signal;HPM_P1;HPM_P2
2023/06/13 00:02:02;;;;;;;4.00;1.55;;;;;;;-140.66;100.00;55571.53;5155115;27;20078;-72
2023/06/13 00:04:51;;;;;;;3.83;1.70;;;;;;;-140.66;100.00;55571.53;5153934;27;20027;-72
2023/06/13 00:07:37;;;;;;;1.92;1.50;;;;;;;-140.66;100.00;55571.53;5154316;27;20094;-72
2023/06/13 00:10:23;;;;;;;4.40;1.60;;;;;;;-140.66;100.00;55571.53;5154997;27;20022;-71
2023/06/13 00:13:10;;;;;;;8.32;1.80;;;;;;;-140.66;100.00;55571.53;5154994;27;20106;-71
2023/06/13 00:15:58;;;;;;;3.13;1.70;;;;;;;-140.66;100.00;55571.53;5154288;27;20031;-72
2023/06/13 00:18:45;;;;;;;3.95;1.65;;;;;;;-140.66;100.00;55571.53;5153222;27;20453;-72
2023/06/13 00:21:32;;;;;;;1.95;1.60;;;;;;;-140.66;100.00;55571.53;5154958;27;20427;-71
2023/06/13 00:24:17;;;;;;;3.67;1.75;;;;;;;-140.66;100.00;55571.53;5139641;27;20096;-72
2023/06/13 00:27:03;;;;;;;1.83;1.58;;;;;;;-140.66;100.00;55571.53;5153892;27;20018;-72
2023/06/13 00:29:49;;;;;;;5.05;1.88;;;;;;;-140.66;100.00;55571.53;5138471;27;20034;-72
2023/06/13 00:32:35;;;;;;;5.30;1.70;;;;;;;-140.66;100.00;55571.53;5154906;27;20033;-71
2023/06/13 00:35:21;;;;;;;5.30;1.60;;;;;;;-140.66;100.00;55571.53;5158829;27;20090;-72
2023/06/13 00:38:07;;;;;;;7.57;1.60;;;;;;;-140.66;100.00;55571.53;5158472;27;20022;-72
2023/06/13 00:40:53;;;;;;;2.50;1.60;;;;;;;-140.66;100.00;55571.53;5157130;27;20046;-71
2023/06/13 00:43:39;;;;;;;1.90;1.70;;;;;;;-140.66;100.00;55571.53;5158921;27;20045;-71
2023/06/13 00:46:32;;;;;;;6.63;1.90;;;;;;;-140.66;100.00;55571.53;5158554;27;20169;-71
2023/06/13 00:49:19;;;;;;;4.05;1.73;;;;;;;-140.66;100.00;55571.53;5158107;27;20102;-70
2023/06/13 00:52:05;;;;;;;4.20;1.60;;;;;;;-140.66;100.00;55571.53;5158386;27;20114;-72
2023/06/13 00:54:51;;;;;;;3.47;1.85;;;;;;;-140.66;100.00;55571.53;5156955;27;20367;-72
2023/06/13 00:57:38;;;;;;;2.13;1.60;;;;;;;-140.66;100.00;55571.53;5157807;27;20440;-72
2023/06/13 01:00:30;;;;;;;2.45;2.00;;;;;;;-140.66;100.00;55571.53;5157475;27;20085;-71
2023/06/13 01:03:15;;;;;;;3.10;1.90;;;;;;;-140.66;100.00;55571.53;5157990;27;20033;-72
2023/06/13 01:06:01;;;;;;;2.67;1.90;;;;;;;-140.66;100.00;55571.53;5157439;27;20098;-73
2023/06/13 01:08:47;;;;;;;2.38;1.80;;;;;;;-140.66;100.00;55571.53;5158312;27;20110;-72
2023/06/13 01:11:34;;;;;;;4.00;1.90;;;;;;;-140.66;100.00;55571.53;5159044;27;20030;-71
2023/06/13 01:14:51;;;;;;;3.17;1.75;;;;;;;-140.66;100.00;55571.53;5157343;27;20027;-71
2023/06/13 01:17:44;;;;;;;2.97;2.00;;;;;;;-140.66;100.00;55571.53;5157541;27;20027;-71
2023/06/13 01:20:33;;;;;;;2.75;2.00;;;;;;;-140.66;100.00;55571.53;5157407;27;20046;-71
2023/06/13 01:23:39;;;;;;;4.43;1.92;;;;;;;-140.66;100.00;55571.53;5156602;27;20031;-72
2023/06/13 01:26:59;;;;;;;4.53;1.88;;;;;;;-140.66;100.00;55571.53;5141607;27;20043;-71
2023/06/13 01:29:45;;;;;;;3.70;1.92;;;;;;;-140.66;100.00;55571.53;5156068;27;20033;-72
2023/06/13 01:32:33;;;;;;;3.53;2.03;;;;;;;-140.66;100.00;55571.53;5157173;27;20511;-71
2023/06/13 01:35:19;;;;;;;3.85;2.10;;;;;;;-140.66;100.00;55571.53;5157507;27;20052;-72
2023/06/13 01:38:06;;;;;;;3.50;2.20;;;;;;;-140.66;100.00;55571.53;5157223;27;20045;-72
2023/06/13 01:40:52;;;;;;;2.50;2.05;;;;;;;-140.66;100.00;55571.53;5142797;27;20027;-71
2023/06/13 01:43:37;;;;;;;2.47;1.90;;;;;;;-140.66;100.00;55571.53;5142451;27;20034;-72
2023/06/13 01:46:26;;;;;;;3.65;1.83;;;;;;;-140.66;100.00;55571.53;5154799;27;20042;-71
2023/06/13 01:49:21;;;;;;;2.80;1.83;;;;;;;-140.66;100.00;55571.53;5156211;27;20471;-71
2023/06/13 01:52:25;;;;;;;2.58;1.80;;;;;;;-140.66;100.00;55571.53;5157668;27;20061;-72
2023/06/13 01:55:24;;;;;;;3.75;1.98;;;;;;;-140.66;100.00;55571.53;5141342;27;20096;-72
2023/06/13 01:58:22;;;;;;;3.20;2.28;;;;;;;-140.66;100.00;55571.53;5156719;27;20019;-71
2023/06/13 02:01:09;;;;;;;3.20;2.40;;;;;;;-140.66;100.00;55571.53;5155865;27;20023;-71
2023/06/13 02:03:55;;;;;;;4.63;2.05;;;;;;;-140.66;100.00;55571.53;5142198;27;20126;-70
2023/06/13 02:06:41;;;;;;;3.05;2.03;;;;;;;-140.66;100.00;55571.53;5142791;27;20113;-71
2023/06/13 02:09:27;;;;;;;2.22;1.95;;;;;;;-140.66;100.00;55571.53;5140420;27;20022;-71
2023/06/13 02:12:13;;;;;;;2.60;1.90;;;;;;;-140.66;100.00;55571.53;5156401;27;20026;-71
2023/06/13 02:14:59;;;;;;;2.22;2.00;;;;;;;-140.66;100.00;55571.53;5141373;27;20042;-73
2023/06/13 02:17:45;;;;;;;2.47;2.10;;;;;;;-140.66;100.00;55571.53;5157680;27;20019;-71
2023/06/13 02:20:31;;;;;;;4.05;1.92;;;;;;;-140.66;100.00;55571.53;5155511;27;20043;-70
2023/06/13 02:23:18;;;;;;;3.03;2.15;;;;;;;-140.66;100.00;55571.53;5140371;27;20447;-71
2023/06/13 02:26:06;;;;;;;3.00;2.30;;;;;;;-140.66;100.00;55571.53;5141609;27;20109;-72
2023/06/13 02:28:52;;;;;;;3.92;2.47;;;;;;;-140.66;100.00;55571.53;5141235;27;20053;-71
2023/06/13 02:31:38;;;;;;;2.85;2.15;;;;;;;-140.66;100.00;55571.53;5142129;27;20019;-71
2023/06/13 02:34:23;;;;;;;7.38;2.30;;;;;;;-140.66;100.00;55571.53;5141659;27;20527;-72
2023/06/13 02:37:09;;;;;;;4.32;2.35;;;;;;;-140.66;100.00;55571.53;5155918;27;20425;-72
2023/06/13 02:39:55;;;;;;;7.03;2.40;;;;;;;-140.66;100.00;55571.53;5155398;27;20102;-72
2023/06/13 02:42:41;;;;;;;4.10;2.00;;;;;;;-140.66;100.00;55571.53;5154709;27;20021;-71
2023/06/13 02:45:26;;;;;;;5.47;2.17;;;;;;;-140.66;100.00;55571.53;5141002;27;20023;-71
2023/06/13 02:48:12;;;;;;;2.83;2.38;;;;;;;-140.66;100.00;55571.53;5155699;27;20031;-73
2023/06/13 02:50:58;;;;;;;3.90;2.38;;;;;;;-140.66;100.00;55571.53;5155796;27;20029;-72
2023/06/13 02:53:43;;;;;;;3.10;2.20;;;;;;;-140.66;100.00;55571.53;5156758;27;20027;-72
2023/06/13 02:56:29;;;;;;;2.28;2.08;;;;;;;-140.66;100.00;55571.53;5140998;27;20019;-71
2023/06/13 02:59:15;;;;;;;3.25;2.17;;;;;;;-140.66;100.00;55571.53;5155602;27;20019;-71
2023/06/13 03:02:01;;;;;;;5.07;2.33;;;;;;;-140.66;100.00;55571.53;5155818;27;20369;-70
2023/06/13 03:04:50;;;;;;;4.07;2.10;;;;;;;-140.66;100.00;55571.53;5155841;27;20015;-71
2023/06/13 03:07:36;;;;;;;6.38;2.22;;;;;;;-140.66;100.00;55571.53;5140040;27;20455;-72
2023/06/13 03:10:22;;;;;;;4.38;2.20;;;;;;;-140.66;100.00;55571.53;5155974;27;20035;-72
2023/06/13 03:13:08;;;;;;;5.03;2.40;;;;;;;-140.66;100.00;55571.53;5155352;27;20022;-73
2023/06/13 03:15:54;;;;;;;3.40;2.25;;;;;;;-140.66;100.00;55571.53;5139968;27;20106;-72
2023/06/13 03:18:40;;;;;;;3.78;2.20;;;;;;;-140.66;100.00;55571.53;5139922;27;20037;-72
2023/06/13 03:21:26;;;;;;;2.90;2.17;;;;;;;-140.66;100.00;55571.53;5155633;27;20031;-70
2023/06/13 03:24:13;;;;;;;2.67;2.08;;;;;;;-140.66;100.00;55571.53;5154314;27;20018;-71
2023/06/13 03:26:59;;;;;;;5.72;2.10;;;;;;;-140.66;100.00;55571.53;5155468;27;20131;-71
2023/06/13 03:29:46;;;;;;;3.20;2.53;;;;;;;-140.66;100.00;55571.53;5154741;27;20409;-71
2023/06/13 03:32:32;;;;;;;5.45;2.75;;;;;;;-140.66;100.00;55571.53;5154520;27;20524;-70
2023/06/13 03:35:17;;;;;;;4.50;2.35;;;;;;;-140.66;100.00;55571.53;5140253;27;20102;-70
2023/06/13 03:38:03;;;;;;;3.53;2.70;;;;;;;-140.66;100.00;55571.53;5155485;27;20058;-71
2023/06/13 03:40:49;;;;;;;4.00;2.40;;;;;;;-140.66;100.00;55571.53;5154211;27;20027;-71
2023/06/13 03:43:35;;;;;;;2.97;2.30;;;;;;;-140.66;100.00;55571.53;5140108;27;20030;-71
2023/06/13 03:46:21;;;;;;;3.40;2.50;;;;;;;-140.66;100.00;55571.53;5154960;27;20455;-72
2023/06/13 03:49:06;;;;;;;2.85;2.47;;;;;;;-140.66;100.00;55571.53;5140510;27;20055;-72
2023/06/13 03:51:52;;;;;;;3.95;2.70;;;;;;;-140.66;100.00;55571.53;5154641;27;20032;-71
2023/06/13 03:54:38;;;;;;;5.80;2.50;;;;;;;-140.66;100.00;55571.53;5154996;27;20023;-72
2023/06/13 03:57:24;;;;;;;5.85;2.40;;;;;;;-140.66;100.00;55571.53;5155353;27;20510;-71
2023/06/13 04:00:11;;;;;;;5.07;2.70;;;;;;;-140.66;100.00;55571.53;5155522;27;20549;-72
2023/06/13 04:02:57;;;;;;;8.48;2.60;;;;;;;-140.66;100.00;55571.53;5155017;27;20018;-71
2023/06/13 04:05:42;;;;;;;6.35;2.75;;;;;;;-140.66;100.00;55571.53;5156592;27;20026;-71
2023/06/13 04:08:28;;;;;;;4.03;2.83;;;;;;;-140.66;100.00;55571.53;5157657;27;20026;-71
2023/06/13 04:11:14;;;;;;;3.90;2.45;;;;;;;-140.66;100.00;55571.53;5162535;27;20107;-71
2023/06/13 04:14:01;;;;;;;5.15;3.20;;;;;;;-140.66;100.00;55571.53;5160367;27;20018;-72
2023/06/13 04:16:46;;;;;;;6.03;2.67;;;;;;;-140.66;100.00;55571.53;5160907;27;20056;-71
2023/06/13 04:19:32;;;;;;;3.15;2.85;;;;;;;-140.66;100.00;55571.53;5143697;27;20100;-72
2023/06/13 04:22:18;;;;;;;3.42;2.80;;;;;;;-140.66;100.00;55571.53;5158767;27;20019;-72
2023/06/13 04:25:04;;;;;;;7.15;3.10;;;;;;;-140.66;100.00;55571.53;5160488;27;20028;-72
2023/06/13 04:27:49;;;;;;;6.18;3.22;;;;;;;-140.66;100.00;55571.53;5158057;27;20367;-71
2023/06/13 04:30:36;;;;;;;4.47;3.00;;;;;;;-140.66;100.00;55571.53;5158354;27;20023;-72
2023/06/13 04:33:24;;;;;;;9.30;3.38;;;;;;;-140.66;100.00;55571.53;5143343;27;20023;-72
2023/06/13 04:36:13;;;;;;;6.72;3.40;;;;;;;-140.66;100.00;55571.53;5158974;27;20031;-72
2023/06/13 04:39:01;;;;;;;6.00;3.13;;;;;;;-140.66;100.00;55571.53;5158785;27;20329;-71
2023/06/13 04:41:48;;;;;;;5.15;3.40;;;;;;;-140.66;100.00;55571.53;5158968;27;20030;-72
2023/06/13 04:44:35;;;;;;;5.82;3.03;;;;;;;-140.66;100.00;55571.53;5158371;27;20103;-71
2023/06/13 04:47:23;;;;;;;4.85;3.00;;;;;;;-140.66;100.00;55571.53;5158051;27;20429;-72
2023/06/13 04:50:08;;;;;;;8.77;3.70;;;;;;;-140.66;100.00;55571.53;5143784;27;20034;-72
2023/06/13 04:52:55;;;;;;;8.65;3.17;;;;;;;-140.66;100.00;55571.53;5143130;27;20027;-72
2023/06/13 04:55:42;;;;;;;5.20;3.10;;;;;;;-140.66;100.00;55571.53;5158448;27;20034;-72
2023/06/13 04:58:27;;;;;;;5.20;3.42;;;;;;;-140.66;100.00;55571.53;5156935;27;20030;-71
2023/06/13 05:01:13;;;;;;;7.78;3.35;;;;;;;-140.66;100.00;55571.53;5158529;27;20098;-71
2023/06/13 05:03:59;;;;;;;16.55;4.30;;;;;;;-140.66;100.00;55571.53;5157255;27;20333;-71
2023/06/13 05:06:45;;;;;;;6.80;3.65;;;;;;;-140.66;100.00;55571.53;5157983;27;20027;-72
2023/06/13 05:09:31;;;;;;;10.15;3.53;;;;;;;-140.66;100.00;55571.53;5157689;27;20524;-71
2023/06/13 05:12:16;;;;;;;5.60;4.28;;;;;;;-140.66;100.00;55571.53;5157069;27;20465;-72
2023/06/13 05:15:02;;;;;;;8.80;3.70;;;;;;;-140.66;100.00;55571.53;5156983;27;20030;-72
2023/06/13 05:17:52;;;;;;;5.90;3.90;;;;;;;-140.66;100.00;55571.53;5157451;27;20109;-72
2023/06/13 05:20:39;;;;;;;8.25;4.50;;;;;;;-140.66;100.00;55571.53;5128567;27;20111;-71
2023/06/13 05:23:26;;;;;;;14.00;5.63;;;;;;;-140.66;100.00;55571.53;5142758;27;20577;-71
2023/06/13 05:26:11;;;;;;;10.70;5.93;;;;;;;-140.66;100.00;55571.53;5156422;27;20057;-72
2023/06/13 05:28:57;;;;;;;10.75;5.90;;;;;;;-140.66;100.00;55571.53;5157280;27;20027;-71
2023/06/13 05:31:43;;;;;;;10.52;5.50;;;;;;;-140.66;100.00;55571.53;5157793;27;20027;-72
2023/06/13 05:34:29;;;;;;;8.77;5.53;;;;;;;-140.66;100.00;55571.53;5156347;27;20353;-72
2023/06/13 05:37:14;;;;;;;7.78;5.30;;;;;;;-140.66;100.00;55571.53;5156425;27;20030;-71
2023/06/13 05:40:00;;;;;;;8.52;5.53;;;;;;;-140.66;100.00;55571.53;5157123;27;20396;-73
2023/06/13 05:42:46;;;;;;;17.67;5.75;;;;;;;-140.66;100.00;55571.53;5157719;27;20102;-72
2023/06/13 05:45:32;;;;;;;11.15;5.72;;;;;;;-140.66;100.00;55571.53;5156669;27;20041;-72
2023/06/13 05:48:17;;;;;;;17.20;6.47;;;;;;;-140.66;100.00;55571.53;5157174;27;20110;-72
2023/06/13 05:51:05;;;;;;;12.52;6.28;;;;;;;-140.66;100.00;55571.53;5157841;27;20054;-72
2023/06/13 05:53:50;;;;;;;9.10;6.93;;;;;;;-140.66;100.00;55571.53;5141688;27;20365;-71
2023/06/13 05:56:36;;;;;;;7.85;6.10;;;;;;;-140.66;100.00;55571.53;5155651;27;20367;-71
2023/06/13 05:59:22;;;;;;;9.30;6.00;;;;;;;-140.66;100.00;55571.53;5141794;27;20029;-72
2023/06/13 06:02:10;;;;;;;8.73;6.43;;;;;;;-140.66;100.00;55571.53;5156011;27;20026;-73
2023/06/13 06:05:00;;;;;;;9.68;6.35;;;;;;;-140.66;100.00;55571.53;5142879;27;20015;-72
2023/06/13 06:07:46;;;;;;;8.05;5.85;;;;;;;-140.66;100.00;55571.53;5156807;27;20031;-71
2023/06/13 06:10:31;;;;;;;11.13;6.03;;;;;;;-140.66;100.00;55571.53;5155798;27;20387;-72
2023/06/13 06:13:17;;;;;;;9.07;6.28;;;;;;;-140.66;100.00;55571.53;5155919;27;20109;-71
2023/06/13 06:16:03;;;;;;;13.20;6.50;;;;;;;-140.66;100.00;55571.53;5155688;27;20041;-72
2023/06/13 06:18:50;;;;;;;9.43;6.60;;;;;;;-140.66;100.00;55571.53;5141367;27;20116;-73
2023/06/13 06:21:35;;;;;;;11.93;6.07;;;;;;;-140.66;100.00;55571.53;5156108;27;20463;-73
2023/06/13 06:24:23;;;;;;;10.75;6.40;;;;;;;-140.66;100.00;55571.53;5155566;27;20037;-73
2023/06/13 06:27:11;;;;;;;11.48;6.40;;;;;;;-140.66;100.00;55571.53;5156713;27;20381;-73
2023/06/13 06:29:56;;;;;;;9.55;6.97;;;;;;;-140.66;100.00;55571.53;5155727;27;20023;-72
2023/06/13 06:32:42;;;;;;;10.05;6.38;;;;;;;-140.66;100.00;55571.53;5140665;27;20049;-73
2023/06/13 06:35:28;;;;;;;9.77;6.70;;;;;;;-140.66;100.00;55571.53;5155953;27;20023;-73
2023/06/13 06:38:14;;;;;;;10.13;5.97;;;;;;;-140.66;100.00;55571.53;5156421;27;20030;-73
2023/06/13 06:41:00;;;;;;;14.90;7.03;;;;;;;-140.66;100.00;55571.53;5154946;27;20026;-73
2023/06/13 06:43:46;;;;;;;9.20;6.47;;;;;;;-140.66;100.00;55571.53;5156522;27;20029;-73
2023/06/13 06:46:31;;;;;;;9.48;6.50;;;;;;;-140.66;100.00;55571.53;5155550;27;20119;-72
2023/06/13 06:49:18;;;;;;;12.45;6.80;;;;;;;-140.66;100.00;55571.53;5155909;27;20023;-73
2023/06/13 06:52:04;;;;;;;8.38;6.00;;;;;;;-140.66;100.00;55571.53;5155651;27;20026;-74
2023/06/13 06:54:50;;;;;;;10.95;6.75;;;;;;;-140.66;100.00;55571.53;5155118;27;20428;-73
2023/06/13 06:57:36;;;;;;;14.20;7.07;;;;;;;-140.66;100.00;55571.53;5141512;27;20378;-70
2023/06/13 07:00:22;;;;;;;10.25;6.55;;;;;;;-140.66;100.00;55571.53;5154681;27;20023;-71
2023/06/13 07:03:08;;;;;;;10.35;7.45;;;;;;;-140.66;100.00;55571.53;5156184;27;20505;-73
2023/06/13 07:05:55;;;;;;;12.13;7.25;;;;;;;-140.66;100.00;55571.53;5155458;27;20126;-73
2023/06/13 07:08:40;;;;;;;13.27;8.00;;;;;;;-140.66;100.00;55571.53;5155607;27;20030;-75
2023/06/13 07:11:27;;;;;;;16.15;7.80;;;;;;;-140.66;100.00;55571.53;5154638;27;20047;-74
2023/06/13 07:14:13;;;;;;;9.23;7.07;;;;;;;-140.66;100.00;55571.53;5155664;27;20054;-72
2023/06/13 07:16:58;;;;;;;8.63;7.38;;;;;;;-140.66;100.00;55571.53;5154459;27;20119;-73
2023/06/13 07:19:44;;;;;;;9.75;7.20;;;;;;;-140.66;100.00;55571.53;5155122;27;20397;-72
2023/06/13 07:22:30;;;;;;;12.30;7.95;;;;;;;-140.66;100.00;55571.53;5156412;27;20026;-73
2023/06/13 07:25:16;;;;;;;11.43;7.85;;;;;;;-140.66;100.00;55571.53;5155296;27;20033;-72
2023/06/13 07:28:01;;;;;;;10.70;7.85;;;;;;;-140.66;100.00;55571.53;5154259;27;20022;-71
2023/06/13 07:30:47;;;;;;;11.32;7.30;;;;;;;-140.66;100.00;55571.53;5155108;27;20018;-71
2023/06/13 07:33:33;;;;;;;11.05;7.70;;;;;;;-140.66;100.00;55571.53;5155371;27;20022;-73
2023/06/13 07:36:19;;;;;;;8.63;7.30;;;;;;;-140.66;100.00;55571.53;5139114;27;20091;-72
2023/06/13 07:39:14;;;;;;;9.65;7.40;;;;;;;-140.66;100.00;55571.53;5139702;27;20033;-72
2023/06/13 07:42:00;;;;;;;13.30;7.55;;;;;;;-140.66;100.00;55571.53;5155256;27;20045;-72
2023/06/13 07:44:45;;;;;;;10.65;7.57;;;;;;;-140.66;100.00;55571.53;5154757;27;20343;-73
2023/06/13 07:47:31;;;;;;;7.85;6.72;;;;;;;-140.66;100.00;55571.53;5153861;27;20533;-71
2023/06/13 07:50:17;;;;;;;12.43;7.05;;;;;;;-140.66;100.00;55571.53;5153725;27;20052;-72
2023/06/13 07:53:03;;;;;;;13.32;7.13;;;;;;;-140.66;100.00;55571.53;5140082;27;20015;-72
2023/06/13 07:55:49;;;;;;;9.35;6.30;;;;;;;-140.66;100.00;55571.53;5140235;27;20034;-71
2023/06/13 07:58:35;;;;;;;9.98;6.38;;;;;;;-140.66;100.00;55571.53;5155462;27;20034;-71
2023/06/13 08:01:22;;;;;;;9.43;6.18;;;;;;;-140.66;100.00;55571.53;5154597;27;20081;-72
2023/06/13 08:04:07;;;;;;;10.93;6.03;;;;;;;-140.66;100.00;55571.53;5139365;27;20087;-72
2023/06/13 08:06:53;;;;;;;7.18;6.20;;;;;;;-140.66;100.00;55571.53;5155052;27;20026;-72
2023/06/13 08:09:39;;;;;;;12.85;6.20;;;;;;;-140.66;100.00;55571.53;5154389;27;20022;-72
2023/06/13 08:12:25;;;;;;;12.32;5.70;;;;;;;-140.66;100.00;55571.53;5154629;27;20030;-72
2023/06/13 08:15:11;;;;;;;13.85;5.80;;;;;;;-140.66;100.00;55571.53;5153669;27;20023;-72
2023/06/13 08:17:57;;;;;;;8.10;5.90;;;;;;;-140.66;100.00;55571.53;5154126;27;20019;-72
2023/06/13 08:20:43;;;;;;;10.48;5.53;;;;;;;-140.66;100.00;55571.53;5154562;27;20050;-72
2023/06/13 08:23:28;;;;;;;7.07;5.18;;;;;;;-140.66;100.00;55571.53;5126652;27;20030;-72
2023/06/13 08:26:15;;;;;;;6.13;5.53;;;;;;;-140.66;100.00;55571.53;5153593;27;20113;-72
2023/06/13 08:29:01;;;;;;;10.27;5.32;;;;;;;-140.66;100.00;55571.53;5154821;27;20336;-74
2023/06/13 08:31:47;;;;;;;7.40;5.50;;;;;;;-140.66;100.00;55571.53;5154476;27;20027;-73
2023/06/13 08:34:33;;;;;;;9.05;5.05;;;;;;;-140.66;100.00;55571.53;5146753;27;20031;-72
2023/06/13 08:37:19;;;;;;;8.07;4.53;;;;;;;-140.66;100.00;55571.53;5152249;27;20338;-73
2023/06/13 08:40:09;;;;;;;8.70;4.57;;;;;;;-140.66;100.00;55571.53;5154748;27;20333;-74
2023/06/13 08:42:57;;;;;;;10.45;5.13;;;;;;;-140.66;100.00;55571.53;5153863;27;20064;-73
2023/06/13 08:45:43;;;;;;;6.28;4.85;;;;;;;-140.66;100.00;55571.53;5139906;27;20114;-73
2023/06/13 08:48:32;;;;;;;13.70;5.20;;;;;;;-140.66;100.00;55571.53;5154010;27;20023;-72
2023/06/13 08:51:21;;;;;;;6.63;4.47;;;;;;;-140.66;100.00;55571.53;5153649;27;20087;-74
2023/06/13 08:54:08;;;;;;;8.48;4.50;;;;;;;-140.66;100.00;55571.53;5153564;27;20464;-70
2023/06/13 08:56:55;;;;;;;6.63;4.57;;;;;;;-140.66;100.00;55571.53;5143319;27;20034;-71
2023/06/13 08:59:43;;;;;;;5.60;4.60;;;;;;;-140.66;100.00;55571.53;5159278;27;20078;-75
2023/06/13 09:02:29;;;;;;;7.65;4.63;;;;;;;-140.66;100.00;55571.53;5144503;27;20033;-75
2023/06/13 09:05:15;;;;;;;8.27;4.63;;;;;;;-140.66;100.00;55571.53;5129845;27;20041;-75
2023/06/13 09:08:02;;;;;;;8.13;4.68;;;;;;;-140.66;100.00;55571.53;5157126;27;20030;-74
2023/06/13 09:10:49;;;;;;;6.57;4.68;;;;;;;-140.66;100.00;55571.53;5158051;27;20027;-75
2023/06/13 09:13:35;;;;;;;6.60;4.22;;;;;;;-140.66;100.00;55571.53;5158601;27;20564;-75
2023/06/13 09:16:21;;;;;;;6.22;4.32;;;;;;;-140.66;100.00;55571.53;5157883;27;20038;-74
2023/06/13 09:19:07;;;;;;;5.78;3.80;;;;;;;-140.66;100.00;55571.53;5157428;27;20126;-74
2023/06/13 09:21:53;;;;;;;5.53;4.60;;;;;;;-140.66;100.00;55571.53;5143162;27;20090;-75
2023/06/13 09:24:39;;;;;;;5.25;4.07;;;;;;;-140.66;100.00;55571.53;5158425;27;20026;-75
2023/06/13 09:27:26;;;;;;;9.20;4.32;;;;;;;-140.66;100.00;55571.53;5158810;27;20030;-73
2023/06/13 09:30:15;;;;;;;5.78;3.67;;;;;;;-140.66;100.00;55571.53;5145947;27;20079;-74
2023/06/13 09:33:02;;;;;;;8.63;4.25;;;;;;;-140.66;100.00;55571.53;5138568;27;20023;-74
2023/06/13 09:35:48;;;;;;;11.77;4.60;;;;;;;-140.66;100.00;55571.53;5137189;27;20034;-74
2023/06/13 09:38:35;;;;;;;6.05;3.90;;;;;;;-140.66;100.00;55571.53;5136466;27;20023;-76
2023/06/13 09:41:21;;;;;;;7.03;4.25;;;;;;;-140.66;100.00;55571.53;5136927;27;20094;-75
2023/06/13 09:44:07;;;;;;;10.43;4.20;;;;;;;-140.66;100.00;55571.53;5136968;27;20019;-74
2023/06/13 09:46:54;;;;;;;6.88;4.07;;;;;;;-140.66;100.00;55571.53;5137204;27;20193;-74
2023/06/13 09:49:39;;;;;;;5.07;3.95;;;;;;;-140.66;100.00;55571.53;5136770;27;20027;-74
2023/06/13 09:52:27;;;;;;;7.63;3.97;;;;;;;-140.66;100.00;55571.53;5136642;27;20027;-74
2023/06/13 09:55:12;;;;;;;4.20;3.70;;;;;;;-140.66;100.00;55571.53;5135917;27;20028;-74
2023/06/13 09:57:58;;;;;;;7.25;4.13;;;;;;;-140.66;100.00;55571.53;5137096;27;20521;-74
2023/06/13 10:00:44;;;;;;;4.70;4.18;;;;;;;-140.66;100.00;55571.53;5135447;27;20101;-74
2023/06/13 10:03:30;;;;;;;10.18;4.22;;;;;;;-140.66;100.00;55571.53;5135623;27;20022;-76
2023/06/13 10:06:16;;;;;;;7.65;3.95;;;;;;;-140.66;100.00;55571.53;5134298;27;20027;-75
2023/06/13 10:09:02;;;;;;;5.20;3.80;;;;;;;-140.66;100.00;55571.53;5135570;27;20092;-73
2023/06/13 10:11:51;;;;;;;6.85;4.30;;;;;;;-140.66;100.00;55571.53;5135810;27;20432;-71
2023/06/13 10:14:42;;;;;;;11.82;4.88;;;;;;;-140.66;100.00;55571.53;5135274;27;20291;-71
2023/06/13 10:17:32;;;;;;;5.00;3.50;;;;;;;-140.66;100.00;55571.53;5135323;27;20031;-71
2023/06/13 10:20:19;;;;;;;5.47;3.90;;;;;;;-140.66;100.00;55571.53;5151903;27;20092;-71
2023/06/13 10:23:10;;;;;;;6.07;3.75;;;;;;;-140.66;100.00;55571.53;5156722;27;20022;-71
2023/06/13 10:25:59;;;;;;;5.85;3.63;;;;;;;-140.66;100.00;55571.53;5155176;27;20395;-72
2023/06/13 10:28:45;;;;;;;7.10;3.85;;;;;;;-140.66;100.00;55571.53;5156664;27;20027;-71
2023/06/13 10:31:36;;;;;;;3.97;3.50;;;;;;;-140.66;100.00;55571.53;5156213;27;20037;-70
2023/06/13 10:34:30;;;;;;;6.65;3.70;;;;;;;-140.66;100.00;55571.53;5156039;27;20432;-70
2023/06/13 10:37:31;;;;;;;17.23;4.22;;;;;;;-140.66;100.00;55571.53;5155977;27;20146;-74
2023/06/13 10:40:26;;;;;;;5.90;3.92;;;;;;;-140.66;100.00;55571.53;5156211;27;20034;-75
2023/06/13 10:43:12;;;;;;;7.55;3.88;;;;;;;-140.66;100.00;55571.53;5157116;27;20014;-75
2023/06/13 10:46:02;;;;;;;5.53;4.03;;;;;;;-140.66;100.00;55571.53;5155316;27;20393;-74
2023/06/13 10:48:51;;;;;;;4.43;3.78;;;;;;;-140.66;100.00;55571.53;5155995;27;20090;-76
2023/06/13 10:51:37;;;;;;;5.47;3.72;;;;;;;-140.66;100.00;55571.53;5155757;27;20030;-74
2023/06/13 10:54:25;;;;;;;10.85;4.18;;;;;;;-140.66;100.00;55571.53;5155669;27;20495;-74
2023/06/13 10:57:11;;;;;;;5.68;4.05;;;;;;;-140.66;100.00;55571.53;5155922;27;20098;-70
2023/06/13 10:59:57;;;;;;;11.35;4.00;;;;;;;-140.66;100.00;55571.53;5156129;27;20036;-70
2023/06/13 11:02:45;;;;;;;7.25;3.50;;;;;;;-140.66;100.00;55571.53;5140896;27;20372;-71
2023/06/13 11:05:36;;;;;;;7.65;3.95;;;;;;;-140.66;100.00;55571.53;5155178;27;20044;-71
2023/06/13 11:08:25;;;;;;;5.30;3.65;;;;;;;-140.66;100.00;55571.53;5155089;27;20023;-70
2023/06/13 11:11:11;;;;;;;9.50;3.90;;;;;;;-140.66;100.00;55571.53;5155766;27;20046;-70
2023/06/13 11:13:58;;;;;;;4.90;3.45;;;;;;;-140.66;100.00;55571.53;5156119;27;20352;-71
2023/06/13 11:16:45;;;;;;;9.45;3.88;;;;;;;-140.66;100.00;55571.53;5155314;27;20035;-71
2023/06/13 11:19:33;;;;;;;8.13;4.25;;;;;;;-140.66;100.00;55571.53;5140086;27;20053;-72
2023/06/13 11:22:22;;;;;;;6.53;3.75;;;;;;;-140.66;100.00;55571.53;5155642;27;20486;-71
2023/06/13 11:25:07;;;;;;;5.25;3.70;;;;;;;-140.66;100.00;55571.53;5155690;27;20410;-72
2023/06/13 11:27:53;;;;;;;4.93;3.65;;;;;;;-140.66;100.00;55571.53;5141011;27;20029;-71
2023/06/13 11:30:43;;;;;;;5.07;3.53;;;;;;;-140.66;100.00;55571.53;5141096;27;20351;-73
2023/06/13 11:33:34;;;;;;;4.05;3.30;;;;;;;-140.66;100.00;55571.53;5154385;27;20106;-71
2023/06/13 11:36:24;;;;;;;5.57;3.70;;;;;;;-140.66;100.00;55571.53;5154852;27;20030;-71
2023/06/13 11:39:13;;;;;;;4.43;3.42;;;;;;;-140.66;100.00;55571.53;5155263;27;20101;-72
2023/06/13 11:42:00;;;;;;;4.80;3.40;;;;;;;-140.66;100.00;55571.53;5154853;27;20094;-71
2023/06/13 11:44:46;;;;;;;6.45;3.83;;;;;;;-140.66;100.00;55571.53;5155211;27;20022;-75
2023/06/13 11:47:32;;;;;;;7.43;3.97;;;;;;;-140.66;100.00;55571.53;5153832;27;20478;-75
2023/06/13 11:50:26;;;;;;;6.85;4.00;;;;;;;-140.66;100.00;55571.53;5154664;27;20168;-76
2023/06/13 11:53:11;;;;;;;6.72;3.80;;;;;;;-140.66;100.00;55571.53;5139788;27;20027;-74
2023/06/13 11:56:04;;;;;;;6.18;3.72;;;;;;;-140.66;100.00;55571.53;5155761;27;20071;-72
2023/06/13 11:58:52;;;;;;;5.22;3.95;;;;;;;-140.66;100.00;55571.53;5154912;27;20033;-72
2023/06/13 12:01:38;;;;;;;6.30;3.72;;;;;;;-140.66;100.00;55571.53;5154310;27;20442;-73
2023/06/13 12:04:26;;;;;;;6.07;4.28;;;;;;;-140.66;100.00;55571.53;5154110;27;20019;-73
2023/06/13 12:07:13;;;;;;;5.45;3.85;;;;;;;-140.66;100.00;55571.53;5154898;27;20034;-73
2023/06/13 12:09:59;;;;;;;5.38;4.25;;;;;;;-140.66;100.00;55571.53;5163423;27;20022;-72
2023/06/13 12:12:58;;;;;;;6.35;3.88;;;;;;;-140.66;100.00;55571.53;5175624;27;20023;-72
2023/06/13 12:15:44;;;;;;;4.72;3.65;;;;;;;-140.66;100.00;55571.53;5174839;27;20018;-71
2023/06/13 12:18:30;;;;;;;6.97;4.15;;;;;;;-140.66;100.00;55571.53;5176019;27;20021;-76
2023/06/13 12:21:16;;;;;;;4.50;3.67;;;;;;;-140.66;100.00;55571.53;5175813;27;20082;-73
2023/06/13 12:24:07;;;;;;;6.68;3.90;;;;;;;-140.66;100.00;55571.53;5160434;27;20093;-74
2023/06/13 12:26:53;;;;;;;14.40;4.65;;;;;;;-140.66;100.00;55571.53;5160616;27;20415;-75
2023/06/13 12:29:39;;;;;;;10.57;4.70;;;;;;;-140.66;100.00;55571.53;5172884;27;20031;-73
2023/06/13 12:32:25;;;;;;;5.40;3.80;;;;;;;-140.66;100.00;55571.53;5175112;27;20023;-71
2023/06/13 12:35:12;;;;;;;7.57;3.80;;;;;;;-140.66;100.00;55571.53;5146944;27;20053;-72
2023/06/13 12:38:00;;;;;;;6.68;3.90;;;;;;;-140.66;100.00;55571.53;5166432;27;20090;-71